Terre Haute Regional (HUF)

 

Airport Diagram
Current Weather/Forecast (VFR Conditions)
METAR KHUF 071253Z 24005KT 10SM CLR 09/06 A3007 RMK AO2 SLP184 T00940056
TAF KHUF 071125Z 0712/0812 00000KT P6SM FEW200 FM071700 27010G20KT P6SM SCT090 FM072200 30012G22KT P6SM SCT120 FM080000 32008KT P6SM FEW180 FM080400 02005KT P6SM FEW250

Airport Information

All Charts
General
Chart Name View
AIRPORT DIAGRAM
TAKEOFF MINIMUMS
ALTERNATE MINIMUMS
RADAR MINIMUMS
LAHSO

Approaches
Chart Name Download
ILS OR LOC RWY 05
RNAV (GPS) RWY 05
RNAV (GPS) RWY 14
RNAV (GPS) RWY 23
RNAV (GPS) RWY 32
VOR RWY 05
VOR RWY 23


Airport Statistics
Departures Arrivals Local
All Collected Stats since June 2016: 89 77 71
2021 Stats: 9 12 2
May Stats: 1 1 1

Inbound Traffic (Arrivals) - 0

No inbound traffic.


Outbound Traffic (Departures) - 0

No outbound traffic.


Local Traffic (Pattern) - 0

No local traffic.